Time;durP1;ratioP1;P1;durP2;ratioP2;P2;SDS_P1;SDS_P2;PMS_P1;PMS_P2;Temp;Humidity;BMP_temperature;BMP_pressure;BME280_temperature;BME280_humidity;BME280_pressure;Samples;Min_cycle;Max_cycle;Signal;HPM_P1;HPM_P2
2023/02/24 00:01:17;;;;;;;7.90;5.20;;;8.30;99.90;;;;;;4868053;29;20029;-78
2023/02/24 00:03:43;;;;;;;7.50;5.15;;;8.30;99.90;;;;;;4885112;29;20017;-78
2023/02/24 00:06:11;;;;;;;9.52;5.90;;;8.30;99.90;;;;;;4885251;29;20035;-77
2023/02/24 00:08:39;;;;;;;7.93;5.55;;;8.30;99.90;;;;;;4894462;29;20067;-78
2023/02/24 00:11:13;;;;;;;7.80;5.13;;;8.30;99.90;;;;;;4887189;29;20120;-78
2023/02/24 00:13:40;;;;;;;7.97;5.28;;;8.40;99.90;;;;;;4885044;29;20570;-78
2023/02/24 00:16:06;;;;;;;8.95;5.50;;;8.40;99.90;;;;;;4884888;29;20037;-78
2023/02/24 00:18:33;;;;;;;7.75;5.57;;;8.40;99.90;;;;;;4879196;29;20111;-79
2023/02/24 00:21:07;;;;;;;8.50;5.25;;;8.40;99.90;;;;;;4886628;29;20024;-79
2023/02/24 00:23:37;;;;;;;8.73;5.13;;;8.40;99.90;;;;;;4886969;29;20482;-79
2023/02/24 00:26:05;;;;;;;8.30;5.05;;;8.40;99.90;;;;;;4903633;29;20032;-79
2023/02/24 00:28:32;;;;;;;7.90;5.15;;;8.40;99.90;;;;;;4886537;29;20409;-78
2023/02/24 00:31:05;;;;;;;7.78;4.97;;;8.40;99.90;;;;;;4886512;29;20033;-78
2023/02/24 00:33:32;;;;;;;7.05;4.93;;;8.40;99.90;;;;;;4903146;29;20072;-77
2023/02/24 00:36:09;;;;;;;7.68;5.07;;;8.40;99.90;;;;;;4888458;29;20114;-77
2023/02/24 00:38:37;;;;;;;6.50;4.93;;;8.40;99.90;;;;;;4894967;29;20021;-77
2023/02/24 00:41:15;;;;;;;8.13;5.25;;;8.40;99.90;;;;;;4867703;29;20061;-77
2023/02/24 00:43:48;;;;;;;7.68;5.18;;;8.40;99.90;;;;;;4889491;29;20081;-77
2023/02/24 00:46:16;;;;;;;8.45;5.47;;;8.40;99.90;;;;;;4884352;29;20116;-77
2023/02/24 00:48:46;;;;;;;8.07;5.32;;;8.40;99.90;;;;;;4884170;29;20072;-77
2023/02/24 00:51:15;;;;;;;8.80;5.43;;;8.40;99.90;;;;;;4896464;29;20036;-77
2023/02/24 00:53:42;;;;;;;7.43;4.82;;;8.40;99.90;;;;;;4884459;29;20060;-77
2023/02/24 00:56:12;;;;;;;7.65;5.00;;;8.50;99.90;;;;;;4884220;29;20033;-77
2023/02/24 00:58:39;;;;;;;8.70;6.10;;;8.50;99.90;;;;;;4888042;29;20029;-76
2023/02/24 01:01:12;;;;;;;9.75;5.95;;;8.40;99.90;;;;;;4911812;29;20140;-76
2023/02/24 01:03:39;;;;;;;7.85;5.43;;;8.40;99.90;;;;;;4919448;29;20016;-76
2023/02/24 01:06:05;;;;;;;9.27;5.88;;;8.50;99.90;;;;;;4912849;29;20036;-76
2023/02/24 01:08:35;;;;;;;7.93;5.53;;;8.50;99.90;;;;;;4916706;29;20370;-76
2023/02/24 01:14:09;;;;;;;9.23;5.75;;;8.50;99.90;;;;;;4844765;29;20127;-76
2023/02/24 01:16:35;;;;;;;10.57;6.32;;;8.50;99.90;;;;;;4876997;29;20043;-76
2023/02/24 01:19:02;;;;;;;12.75;6.72;;;8.50;99.90;;;;;;4898241;29;20401;-76
2023/02/24 01:21:27;;;;;;;11.80;6.75;;;8.50;99.90;;;;;;4902841;29;20029;-77
2023/02/24 01:23:53;;;;;;;9.88;5.78;;;8.50;99.90;;;;;;4902356;29;20031;-78
2023/02/24 01:26:19;;;;;;;10.88;6.07;;;8.50;99.90;;;;;;4902666;29;20507;-77
2023/02/24 01:28:46;;;;;;;12.82;7.40;;;8.50;99.90;;;;;;4902433;29;20459;-77
2023/02/24 01:31:16;;;;;;;12.30;7.32;;;8.50;99.90;;;;;;4885295;29;20041;-77
2023/02/24 01:33:44;;;;;;;11.73;7.05;;;8.60;99.90;;;;;;4885365;29;20033;-77
2023/02/24 01:36:17;;;;;;;12.85;6.38;;;8.60;99.90;;;;;;4902388;29;20025;-76
2023/02/24 01:38:44;;;;;;;11.02;6.97;;;8.60;99.90;;;;;;4885992;29;20379;-76
2023/02/24 01:41:15;;;;;;;11.68;6.72;;;8.60;99.90;;;;;;4883663;29;20029;-77
2023/02/24 01:44:11;;;;;;;11.55;6.90;;;8.60;99.90;;;;;;4888526;29;20100;-76
2023/02/24 01:46:39;;;;;;;10.07;6.15;;;8.60;99.90;;;;;;4883810;29;20025;-76
2023/02/24 01:49:19;;;;;;;11.50;7.00;;;8.60;99.90;;;;;;4883471;29;20029;-76
2023/02/24 01:52:00;;;;;;;13.55;7.45;;;8.60;99.90;;;;;;4883445;29;20478;-76
2023/02/24 01:54:31;;;;;;;10.98;6.72;;;8.60;99.90;;;;;;4866700;29;20087;-76
2023/02/24 01:56:57;;;;;;;13.00;7.53;;;8.60;99.90;;;;;;4885226;29;20521;-77
2023/02/24 01:59:28;;;;;;;13.55;7.60;;;8.60;99.90;;;;;;4866702;29;20025;-77
2023/02/24 02:02:02;;;;;;;13.80;7.80;;;8.60;99.90;;;;;;4883488;29;20036;-77
2023/02/24 02:04:44;;;;;;;11.02;6.43;;;8.70;99.90;;;;;;4883346;29;20028;-77
2023/02/24 02:07:13;;;;;;;14.27;7.72;;;8.70;99.90;;;;;;4891374;29;20070;-77
2023/02/24 02:09:42;;;;;;;11.43;6.70;;;8.70;99.90;;;;;;4869763;29;20025;-77
2023/02/24 02:12:09;;;;;;;11.65;6.97;;;8.60;99.90;;;;;;4869705;29;20057;-77
2023/02/24 02:14:46;;;;;;;13.82;7.90;;;8.70;99.90;;;;;;4882927;29;20029;-77
2023/02/24 02:17:15;;;;;;;13.93;7.18;;;8.70;99.90;;;;;;4884000;29;20173;-78
2023/02/24 02:20:16;;;;;;;12.40;6.93;;;8.70;99.90;;;;;;4885432;29;20029;-77
2023/02/24 02:22:59;;;;;;;15.20;8.13;;;8.70;99.90;;;;;;4841466;29;20040;-78
2023/02/24 02:26:07;;;;;;;12.00;6.90;;;8.70;99.90;;;;;;4905871;29;20080;-77
2023/02/24 02:28:41;;;;;;;12.18;7.13;;;8.70;99.90;;;;;;4878530;29;20028;-78
2023/02/24 02:31:27;;;;;;;12.32;6.72;;;8.70;99.90;;;;;;4905747;29;20061;-77
2023/02/24 02:34:04;;;;;;;12.63;7.72;;;8.70;99.90;;;;;;4905672;29;20366;-77
2023/02/24 02:36:53;;;;;;;13.80;7.20;;;8.70;99.90;;;;;;4905531;29;20035;-77
2023/02/24 02:39:31;;;;;;;11.70;6.75;;;8.70;99.90;;;;;;4886754;29;20502;-77
2023/02/24 02:42:17;;;;;;;13.20;7.22;;;8.70;99.90;;;;;;4886645;29;20410;-77
2023/02/24 02:44:57;;;;;;;13.85;7.82;;;8.70;99.90;;;;;;4892023;29;20025;-77
2023/02/24 02:47:40;;;;;;;12.10;6.97;;;8.70;99.90;;;;;;4886719;29;20554;-77
2023/02/24 02:50:17;;;;;;;12.43;7.10;;;8.60;99.90;;;;;;4870026;29;20048;-77
2023/02/24 02:52:55;;;;;;;14.48;7.78;;;8.60;99.90;;;;;;4886686;29;20029;-77
2023/02/24 02:55:46;;;;;;;15.15;8.13;;;8.60;99.90;;;;;;4886444;29;20037;-77
2023/02/24 02:58:19;;;;;;;14.73;9.02;;;8.60;99.90;;;;;;4886446;29;20501;-77
2023/02/24 03:01:00;;;;;;;15.05;8.68;;;8.60;99.90;;;;;;4886334;29;20431;-78
2023/02/24 03:03:29;;;;;;;15.80;9.32;;;8.60;99.90;;;;;;4869820;29;20486;-78
2023/02/24 03:06:07;;;;;;;15.40;8.68;;;8.60;99.90;;;;;;4869911;29;20036;-79
2023/02/24 03:08:37;;;;;;;16.38;9.65;;;8.60;99.90;;;;;;4896794;29;20032;-78
2023/02/24 03:11:08;;;;;;;15.80;8.68;;;8.60;99.90;;;;;;4872417;29;20045;-78
2023/02/24 03:13:39;;;;;;;16.65;8.88;;;8.60;99.90;;;;;;4892135;29;20112;-78
2023/02/24 03:16:08;;;;;;;18.40;10.07;;;8.60;99.90;;;;;;4873660;29;20559;-78
2023/02/24 03:18:39;;;;;;;16.05;8.52;;;8.50;99.90;;;;;;4897277;29;20080;-78
2023/02/24 03:21:08;;;;;;;18.52;9.48;;;8.50;99.90;;;;;;4887930;29;20112;-77
2023/02/24 03:23:44;;;;;;;18.88;10.52;;;8.50;99.90;;;;;;4904641;29;20021;-77
2023/02/24 03:26:27;;;;;;;16.77;9.73;;;8.50;99.90;;;;;;4904684;29;20029;-77
2023/02/24 03:28:52;;;;;;;16.20;9.37;;;8.50;99.90;;;;;;4887558;29;20061;-77
2023/02/24 03:31:29;;;;;;;17.20;9.60;;;8.50;99.90;;;;;;4904272;29;20355;-77
2023/02/24 03:34:16;;;;;;;16.20;9.70;;;8.50;99.90;;;;;;4903601;29;20032;-76
2023/02/24 03:36:42;;;;;;;16.75;9.18;;;8.40;99.90;;;;;;4903627;29;20036;-76
2023/02/24 03:39:11;;;;;;;16.23;9.65;;;8.40;99.90;;;;;;4868849;29;20402;-76
2023/02/24 03:41:50;;;;;;;17.05;9.60;;;8.40;99.90;;;;;;4885526;29;20085;-77
2023/02/24 03:44:15;;;;;;;18.35;10.00;;;8.40;99.90;;;;;;4889991;29;20017;-77
2023/02/24 03:46:41;;;;;;;17.38;9.52;;;8.40;99.90;;;;;;4885328;29;20098;-76
2023/02/24 03:49:15;;;;;;;17.73;9.85;;;8.40;99.90;;;;;;4869377;29;20356;-77
2023/02/24 03:52:04;;;;;;;16.83;9.13;;;8.40;99.90;;;;;;4868906;29;20047;-77
2023/02/24 03:54:51;;;;;;;16.02;9.45;;;8.40;99.90;;;;;;4885334;29;20540;-77
2023/02/24 03:57:33;;;;;;;14.90;8.55;;;8.40;99.90;;;;;;4885447;29;20402;-77
2023/02/24 04:00:24;;;;;;;15.70;8.68;;;8.40;99.90;;;;;;4885234;29;20021;-77
2023/02/24 04:03:02;;;;;;;15.15;8.38;;;8.40;99.90;;;;;;4885064;29;20491;-77
2023/02/24 04:05:30;;;;;;;14.55;8.40;;;8.40;99.90;;;;;;4885217;29;20024;-76
2023/02/24 04:08:03;;;;;;;15.32;8.80;;;8.40;99.90;;;;;;4893774;29;20484;-76
2023/02/24 04:10:29;;;;;;;16.40;9.05;;;8.40;99.90;;;;;;4869694;29;20045;-76
2023/02/24 04:13:13;;;;;;;15.35;8.50;;;8.40;99.90;;;;;;4885185;29;20410;-77
2023/02/24 04:15:42;;;;;;;15.90;9.02;;;8.40;99.90;;;;;;4867831;29;20483;-77
2023/02/24 04:18:19;;;;;;;15.52;8.95;;;8.40;99.90;;;;;;4892818;29;20036;-76
2023/02/24 04:20:52;;;;;;;16.58;9.85;;;8.50;99.90;;;;;;4903582;29;20071;-76
2023/02/24 04:23:22;;;;;;;15.30;9.05;;;8.40;99.90;;;;;;4903937;29;20029;-76
2023/02/24 04:25:51;;;;;;;14.45;8.50;;;8.40;99.90;;;;;;4903526;29;20124;-77
2023/02/24 04:28:20;;;;;;;15.90;8.98;;;8.50;99.90;;;;;;4903762;29;20068;-77
2023/02/24 04:30:50;;;;;;;14.15;8.80;;;8.50;99.90;;;;;;4903139;29;20047;-76
2023/02/24 04:33:16;;;;;;;16.98;9.15;;;8.40;99.90;;;;;;4903539;29;20029;-77
2023/02/24 04:35:49;;;;;;;15.98;9.18;;;8.50;99.90;;;;;;4903346;29;21011;-78
2023/02/24 04:38:17;;;;;;;14.75;8.50;;;8.50;99.90;;;;;;4891024;29;20029;-78
2023/02/24 04:40:44;;;;;;;14.52;8.48;;;8.50;99.90;;;;;;4858629;29;20049;-78
2023/02/24 04:43:09;;;;;;;14.20;8.15;;;8.50;99.90;;;;;;4860917;29;20052;-78
2023/02/24 04:45:38;;;;;;;13.82;8.32;;;8.50;99.90;;;;;;4849054;29;20033;-78
2023/02/24 04:48:11;;;;;;;15.00;8.27;;;8.50;99.90;;;;;;4865775;29;20070;-77
2023/02/24 04:50:39;;;;;;;14.45;8.48;;;8.50;99.90;;;;;;4865943;29;20082;-77
2023/02/24 04:53:14;;;;;;;14.63;8.27;;;8.40;99.90;;;;;;4849147;29;20021;-77
2023/02/24 04:55:47;;;;;;;14.18;8.32;;;8.40;99.90;;;;;;4865801;29;20030;-76
2023/02/24 04:58:18;;;;;;;;;;;8.50;99.90;;;;;;4849462;29;20505;-76
2023/02/24 05:00:47;;;;;;;11.45;7.03;;;8.50;99.90;;;;;;4865542;29;19915;-76
2023/02/24 05:03:13;;;;;;;12.45;7.20;;;8.40;99.90;;;;;;4865443;29;20122;-76
2023/02/24 05:05:41;;;;;;;13.13;7.30;;;8.40;99.90;;;;;;4865924;29;20470;-76
2023/02/24 05:08:09;;;;;;;13.30;7.82;;;8.40;99.90;;;;;;4868062;29;20037;-76
2023/02/24 05:10:43;;;;;;;13.35;7.65;;;8.50;99.90;;;;;;4867496;29;20022;-77
2023/02/24 05:13:12;;;;;;;15.13;8.90;;;8.40;99.90;;;;;;4865612;29;20032;-76
2023/02/24 05:15:40;;;;;;;13.70;7.88;;;8.40;99.90;;;;;;4865298;29;20060;-75
2023/02/24 05:18:12;;;;;;;14.15;8.00;;;8.40;99.90;;;;;;4872901;29;20029;-75
2023/02/24 05:23:32;;;;;;;14.80;8.32;;;8.40;99.90;;;;;;4884199;29;20088;-77
2023/02/24 05:25:59;;;;;;;13.80;7.93;;;8.40;99.90;;;;;;4867018;29;20033;-75
2023/02/24 05:28:25;;;;;;;12.45;7.35;;;8.40;99.90;;;;;;4883927;29;20033;-76
2023/02/24 05:30:53;;;;;;;12.68;7.18;;;8.40;99.90;;;;;;4883630;29;20049;-76
2023/02/24 05:33:21;;;;;;;12.82;7.75;;;8.40;99.90;;;;;;4883701;29;20071;-76
2023/02/24 05:35:49;;;;;;;12.82;7.72;;;8.40;99.90;;;;;;4867708;29;20021;-77
2023/02/24 05:38:18;;;;;;;12.88;7.65;;;8.40;99.90;;;;;;4859244;29;20025;-78
2023/02/24 05:40:46;;;;;;;12.95;7.25;;;8.40;99.90;;;;;;4880687;29;20037;-79
2023/02/24 05:43:17;;;;;;;13.05;7.72;;;8.40;99.90;;;;;;4887881;29;20029;-80
2023/02/24 05:45:46;;;;;;;11.55;7.00;;;8.40;99.90;;;;;;4883437;29;20022;-78
2023/02/24 05:48:15;;;;;;;10.80;6.40;;;8.40;99.90;;;;;;4866812;29;20068;-78
2023/02/24 05:50:45;;;;;;;11.50;6.80;;;8.40;99.90;;;;;;4883933;29;20493;-78
2023/02/24 05:53:12;;;;;;;14.50;7.88;;;8.40;99.90;;;;;;4867102;29;20025;-79
2023/02/24 05:55:38;;;;;;;12.10;7.28;;;8.40;99.90;;;;;;4866293;29;20053;-78
2023/02/24 05:58:06;;;;;;;13.48;7.13;;;8.40;99.90;;;;;;4866902;29;20025;-78
2023/02/24 06:00:37;;;;;;;12.60;7.00;;;8.40;99.90;;;;;;4883266;29;20025;-78
2023/02/24 06:03:08;;;;;;;11.82;6.70;;;8.40;99.90;;;;;;4883243;29;20108;-79
2023/02/24 06:05:34;;;;;;;12.45;7.32;;;8.40;99.90;;;;;;4883510;29;20017;-78
2023/02/24 06:08:03;;;;;;;12.93;7.20;;;8.40;99.90;;;;;;4892481;29;20093;-78
2023/02/24 06:10:32;;;;;;;11.60;6.95;;;8.40;99.90;;;;;;4895271;29;20025;-77
2023/02/24 06:12:59;;;;;;;13.55;7.40;;;8.40;99.90;;;;;;4883469;29;20065;-78
2023/02/24 06:15:26;;;;;;;12.82;7.15;;;8.30;99.90;;;;;;4866934;29;20085;-77
2023/02/24 06:17:55;;;;;;;11.45;6.80;;;8.30;99.90;;;;;;4888936;29;20062;-78
2023/02/24 06:20:22;;;;;;;13.90;7.35;;;8.30;99.90;;;;;;4885209;29;20029;-78
2023/02/24 06:22:53;;;;;;;13.02;7.10;;;8.30;99.90;;;;;;4884985;29;20032;-78
2023/02/24 06:25:20;;;;;;;12.95;7.18;;;8.30;99.90;;;;;;4901862;29;20031;-78
2023/02/24 06:27:51;;;;;;;12.63;6.80;;;8.30;99.90;;;;;;4901916;29;20078;-77
2023/02/24 06:30:18;;;;;;;13.68;7.53;;;8.20;99.90;;;;;;4901651;29;20402;-78
2023/02/24 06:32:43;;;;;;;13.85;7.22;;;8.30;99.90;;;;;;4885009;29;20564;-77
2023/02/24 06:35:11;;;;;;;11.35;6.78;;;8.20;99.90;;;;;;4901818;29;20068;-78
2023/02/24 06:37:38;;;;;;;12.80;7.10;;;8.20;99.90;;;;;;4893833;29;20024;-77
2023/02/24 06:40:14;;;;;;;14.05;7.63;;;8.20;99.90;;;;;;4866453;29;20053;-77
2023/02/24 06:42:44;;;;;;;14.25;8.15;;;8.20;99.90;;;;;;4885020;29;20025;-77
2023/02/24 06:45:10;;;;;;;12.38;7.13;;;8.10;99.90;;;;;;4875388;29;20029;-76
2023/02/24 06:47:36;;;;;;;12.85;7.13;;;8.10;99.90;;;;;;4898838;29;20553;-76
2023/02/24 06:50:06;;;;;;;13.95;7.28;;;8.10;99.90;;;;;;4887574;29;20033;-76
2023/02/24 06:52:32;;;;;;;12.07;7.43;;;8.00;99.90;;;;;;4882557;29;20446;-75
2023/02/24 06:54:58;;;;;;;12.00;7.50;;;8.00;99.90;;;;;;4882929;29;20060;-76
2023/02/24 06:57:24;;;;;;;11.57;6.72;;;8.00;99.90;;;;;;4918420;29;20063;-77
2023/02/24 06:59:49;;;;;;;13.38;6.55;;;7.90;99.90;;;;;;4910158;29;20030;-77
2023/02/24 07:02:16;;;;;;;13.50;7.80;;;7.90;99.90;;;;;;4892574;29;20618;-77
2023/02/24 07:04:44;;;;;;;13.35;7.35;;;7.90;99.90;;;;;;4915146;29;20055;-77
2023/02/24 07:07:12;;;;;;;13.73;7.55;;;7.90;99.90;;;;;;4895494;29;20029;-77
2023/02/24 07:09:40;;;;;;;13.10;6.97;;;7.80;99.90;;;;;;4872204;29;20511;-76
2023/02/24 07:12:06;;;;;;;12.88;7.28;;;7.80;99.90;;;;;;4882131;29;20119;-76
2023/02/24 07:14:35;;;;;;;11.15;6.97;;;7.80;99.90;;;;;;4894653;29;20037;-76
2023/02/24 07:17:02;;;;;;;14.93;7.43;;;7.70;99.90;;;;;;4897289;29;20028;-76
2023/02/24 07:19:31;;;;;;;13.45;7.35;;;7.70;99.90;;;;;;4882851;29;20025;-77
2023/02/24 07:22:02;;;;;;;12.25;7.05;;;7.70;99.90;;;;;;4905837;29;20030;-76
2023/02/24 07:24:35;;;;;;;12.85;7.18;;;7.70;99.90;;;;;;4915721;29;20048;-77
2023/02/24 07:27:10;;;;;;;12.20;6.53;;;7.60;99.90;;;;;;4895784;29;20024;-77
2023/02/24 07:29:37;;;;;;;12.85;7.32;;;7.60;99.90;;;;;;4901917;29;20032;-77
2023/02/24 07:32:07;;;;;;;13.27;7.30;;;7.60;99.90;;;;;;4896211;29;20032;-77
2023/02/24 07:34:33;;;;;;;13.18;7.45;;;7.50;99.90;;;;;;4900722;29;20374;-78
2023/02/24 07:37:06;;;;;;;11.93;6.90;;;7.50;99.90;;;;;;4899323;29;20029;-77
2023/02/24 07:39:33;;;;;;;12.02;6.78;;;7.50;99.90;;;;;;4884824;29;20433;-77
2023/02/24 07:41:58;;;;;;;11.25;6.68;;;7.50;99.90;;;;;;4886825;29;20056;-80
2023/02/24 07:44:25;;;;;;;13.00;7.57;;;7.50;99.90;;;;;;4914994;29;20028;-79
2023/02/24 07:46:51;;;;;;;12.85;7.28;;;7.50;99.90;;;;;;4903706;29;20502;-78
2023/02/24 07:49:19;;;;;;;13.18;7.20;;;7.50;99.90;;;;;;4920498;29;20106;-78
2023/02/24 07:51:51;;;;;;;13.93;7.43;;;7.40;99.90;;;;;;4900563;29;20024;-78
2023/02/24 07:54:18;;;;;;;12.93;7.05;;;7.40;99.90;;;;;;4918744;29;20027;-78
2023/02/24 07:56:55;;;;;;;11.68;7.03;;;7.40;99.90;;;;;;4896466;29;20036;-78
2023/02/24 07:59:21;;;;;;;12.82;7.43;;;7.40;99.90;;;;;;4899958;29;20060;-78
2023/02/24 08:01:50;;;;;;;13.65;7.43;;;7.40;99.90;;;;;;4920448;29;20044;-79
2023/02/24 08:04:25;;;;;;;12.57;7.20;;;7.40;99.90;;;;;;4903332;29;20405;-78
2023/02/24 08:06:55;;;;;;;13.32;7.10;;;7.40;99.90;;;;;;4913652;29;20028;-79
2023/02/24 08:12:16;;;;;;;13.95;7.35;;;7.40;99.90;;;;;;4917622;29;20024;-78
2023/02/24 08:14:43;;;;;;;13.27;7.57;;;7.50;99.90;;;;;;4902488;29;20481;-79
2023/02/24 08:17:18;;;;;;;13.70;7.05;;;7.50;99.90;;;;;;4919178;29;20083;-79
2023/02/24 08:19:46;;;;;;;13.38;7.10;;;7.50;99.90;;;;;;4920637;29;20026;-79
2023/02/24 08:22:18;;;;;;;12.10;6.75;;;7.50;99.90;;;;;;4897843;29;20032;-79
2023/02/24 08:24:51;;;;;;;11.80;6.38;;;7.50;99.90;;;;;;4919408;29;20027;-78
2023/02/24 08:27:21;;;;;;;12.80;6.60;;;7.50;99.90;;;;;;4894318;29;20430;-78
2023/02/24 08:29:57;;;;;;;12.60;7.20;;;7.50;99.90;;;;;;4916791;29;20080;-78
2023/02/24 08:32:23;;;;;;;13.10;7.15;;;7.50;99.90;;;;;;4902860;29;20083;-78
2023/02/24 08:34:53;;;;;;;12.20;6.82;;;7.50;99.90;;;;;;4919645;29;20034;-78
2023/02/24 08:37:21;;;;;;;12.73;7.07;;;7.60;99.90;;;;;;4914224;29;20028;-78
2023/02/24 08:39:52;;;;;;;12.98;7.63;;;7.50;99.90;;;;;;4917236;29;20035;-78
2023/02/24 08:42:19;;;;;;;11.80;6.70;;;7.50;99.90;;;;;;4868068;29;20089;-77
2023/02/24 08:44:45;;;;;;;12.45;6.47;;;7.50;99.90;;;;;;4888811;29;20025;-78
2023/02/24 08:47:12;;;;;;;12.13;6.63;;;7.50;99.90;;;;;;4867913;29;20113;-77
2023/02/24 08:49:39;;;;;;;11.23;7.05;;;7.50;99.90;;;;;;4896740;29;20020;-77
2023/02/24 08:52:06;;;;;;;13.43;7.00;;;7.60;99.90;;;;;;4867661;29;20076;-77
2023/02/24 08:54:32;;;;;;;10.75;6.07;;;7.60;99.90;;;;;;4867364;29;20036;-78
2023/02/24 08:57:06;;;;;;;11.63;6.95;;;7.60;99.90;;;;;;4884408;29;20112;-78
2023/02/24 08:59:39;;;;;;;11.23;6.18;;;7.60;99.90;;;;;;4875060;29;20028;-77
2023/02/24 09:04:52;;;;;;;9.07;5.45;;;7.70;99.90;;;;;;4884516;29;20029;-77
2023/02/24 09:07:21;;;;;;;10.25;5.72;;;7.70;99.90;;;;;;4880068;29;20037;-78
2023/02/24 09:09:47;;;;;;;9.88;5.53;;;7.70;99.90;;;;;;4868544;29;20059;-78
2023/02/24 09:12:23;;;;;;;10.35;6.13;;;7.70;99.90;;;;;;4868183;29;20059;-78
2023/02/24 09:15:11;;;;;;;11.57;5.35;;;7.80;99.90;;;;;;4877377;29;20033;-78
2023/02/24 09:17:39;;;;;;;9.23;5.13;;;7.80;99.90;;;;;;4894878;29;20072;-78
2023/02/24 09:23:07;;;;;;;8.98;5.55;;;7.80;99.90;;;;;;4890423;29;20446;-80
2023/02/24 09:25:48;;;;;;;8.23;4.85;;;7.90;99.90;;;;;;4902445;29;20102;-78
2023/02/24 09:28:19;;;;;;;7.93;4.60;;;8.00;99.90;;;;;;4883078;29;20478;-78
2023/02/24 09:30:52;;;;;;;7.68;4.78;;;8.00;99.90;;;;;;4882499;29;20033;-78
2023/02/24 09:33:41;;;;;;;8.88;5.00;;;8.10;99.90;;;;;;4870495;29;20440;-77
2023/02/24 09:36:12;;;;;;;7.13;4.32;;;8.10;99.90;;;;;;4892943;29;20092;-78
2023/02/24 09:41:55;;;;;;;7.70;4.28;;;8.20;99.90;;;;;;4865263;29;20049;-79
2023/02/24 09:44:33;;;;;;;8.48;4.45;;;8.20;99.90;;;;;;4863037;29;20081;-79
2023/02/24 09:47:29;;;;;;;9.32;4.65;;;8.20;99.90;;;;;;4883852;29;20074;-80
2023/02/24 09:50:18;;;;;;;6.30;3.42;;;8.30;99.90;;;;;;4846199;29;20496;-78
2023/02/24 09:52:45;;;;;;;9.85;4.30;;;8.30;99.90;;;;;;4855117;29;20395;-78
2023/02/24 09:55:24;;;;;;;6.43;3.78;;;8.40;99.90;;;;;;4847591;29;20033;-78
2023/02/24 10:01:19;;;;;;;4.88;3.10;;;8.40;99.90;;;;;;4864733;29;20033;-78
2023/02/24 10:04:12;;;;;;;6.25;2.90;;;8.50;99.90;;;;;;4874392;29;20053;-77
2023/02/24 10:06:47;;;;;;;4.75;2.80;;;8.50;99.90;;;;;;4867319;29;20037;-79
2023/02/24 10:09:25;;;;;;;4.78;2.58;;;8.50;99.90;;;;;;4857124;29;20033;-79
2023/02/24 10:12:03;;;;;;;4.72;2.60;;;8.60;99.90;;;;;;4850087;29;20050;-79
2023/02/24 10:14:53;;;;;;;4.47;2.55;;;8.60;99.90;;;;;;4847750;29;20095;-79
2023/02/24 10:17:22;;;;;;;10.40;2.38;;;8.80;99.90;;;;;;4866019;29;20034;-79
2023/02/24 10:20:12;;;;;;;4.57;2.63;;;8.80;99.90;;;;;;4883214;29;20025;-79
2023/02/24 10:22:49;;;;;;;3.40;1.92;;;9.00;99.90;;;;;;4883152;29;20395;-79
2023/02/24 10:25:34;;;;;;;3.88;2.45;;;9.00;99.90;;;;;;4883071;29;20033;-79
2023/02/24 10:28:15;;;;;;;4.60;2.25;;;9.10;99.90;;;;;;4866500;29;20061;-80
2023/02/24 10:31:08;;;;;;;4.18;2.60;;;9.10;99.90;;;;;;4882838;29;20029;-79
2023/02/24 10:33:44;;;;;;;3.38;2.10;;;9.10;99.90;;;;;;4866205;29;20029;-79
2023/02/24 10:36:21;;;;;;;4.20;1.83;;;9.10;99.90;;;;;;4883278;29;20397;-79
2023/02/24 10:38:49;;;;;;;4.60;2.58;;;9.20;99.90;;;;;;4870884;29;20451;-80
2023/02/24 10:41:16;;;;;;;3.15;2.17;;;9.20;99.90;;;;;;4874051;29;20029;-79
2023/02/24 10:43:54;;;;;;;5.65;2.25;;;9.10;99.90;;;;;;4878848;29;20032;-80
2023/02/24 10:46:25;;;;;;;4.32;2.28;;;9.10;99.90;;;;;;4875581;29;20093;-80
2023/02/24 10:48:59;;;;;;;4.85;2.63;;;9.10;99.90;;;;;;4886677;29;20033;-81
2023/02/24 10:51:36;;;;;;;3.83;2.42;;;9.00;99.90;;;;;;4869561;29;20076;-80
2023/02/24 10:57:17;;;;;;;3.88;2.28;;;8.90;99.90;;;;;;4886643;29;20042;-79
2023/02/24 11:00:19;;;;;;;3.03;1.90;;;8.80;99.90;;;;;;4869680;29;20391;-80
2023/02/24 11:03:09;;;;;;;3.47;2.05;;;8.80;99.90;;;;;;4885868;29;20032;-79
2023/02/24 11:06:06;;;;;;;3.45;1.88;;;8.80;99.90;;;;;;4886408;29;20029;-79
2023/02/24 11:11:29;;;;;;;;;;;8.70;99.90;;;;;;4889282;29;20029;-78
2023/02/24 11:19:49;;;;;;;2.58;1.70;;;8.80;99.90;;;;;;4886241;29;20081;-80
2023/02/24 11:22:26;;;;;;;3.70;1.80;;;8.90;99.90;;;;;;4869119;29;20029;-81
2023/02/24 11:24:52;;;;;;;3.67;1.83;;;9.00;99.90;;;;;;4894162;29;20027;-80
2023/02/24 11:27:21;;;;;;;3.50;1.90;;;9.10;99.90;;;;;;4891857;29;20108;-80
2023/02/24 11:30:13;;;;;;;3.30;2.03;;;9.10;99.90;;;;;;4885839;29;20028;-81
2023/02/24 11:32:45;;;;;;;2.72;1.90;;;9.20;99.90;;;;;;4869139;29;20093;-81
2023/02/24 11:35:26;;;;;;;4.15;1.70;;;9.30;99.90;;;;;;4868856;29;20044;-79
2023/02/24 11:38:41;;;;;;;3.05;2.10;;;9.30;99.90;;;;;;4887510;29;20096;-81
2023/02/24 11:41:28;;;;;;;5.20;2.10;;;9.20;99.90;;;;;;4837613;29;20042;-81
2023/02/24 11:44:08;;;;;;;2.00;1.60;;;9.20;99.90;;;;;;4881197;29;20036;-79
2023/02/24 11:46:53;;;;;;;3.70;1.90;;;9.30;99.90;;;;;;4868483;29;20025;-80
2023/02/24 11:49:43;;;;;;;4.07;1.92;;;9.30;99.90;;;;;;4878369;29;20036;-79
2023/02/24 11:52:17;;;;;;;3.05;1.90;;;9.30;99.90;;;;;;4896917;29;20025;-79
2023/02/24 11:54:47;;;;;;;3.85;2.17;;;9.20;99.90;;;;;;4868135;29;20546;-79
2023/02/24 11:57:20;;;;;;;2.95;1.77;;;9.30;99.90;;;;;;4885443;29;20029;-80
2023/02/24 12:00:19;;;;;;;5.72;2.22;;;9.30;99.90;;;;;;4868258;29;20040;-80
2023/02/24 12:03:05;;;;;;;3.47;1.88;;;9.30;99.90;;;;;;4885335;29;20064;-80
2023/02/24 12:05:37;;;;;;;2.70;1.83;;;9.20;99.90;;;;;;4885208;29;20558;-80
2023/02/24 12:08:12;;;;;;;4.78;2.20;;;9.20;99.90;;;;;;4895548;29;20099;-80
2023/02/24 12:10:55;;;;;;;4.03;1.60;;;9.20;99.90;;;;;;4870525;29;20045;-80
2023/02/24 12:13:46;;;;;;;2.90;1.75;;;9.20;99.90;;;;;;4868850;29;20554;-79
2023/02/24 12:16:16;;;;;;;3.08;1.92;;;9.20;99.90;;;;;;4866241;29;20045;-80
2023/02/24 12:18:58;;;;;;;4.07;2.40;;;9.30;99.90;;;;;;4880306;29;20146;-79
2023/02/24 12:21:34;;;;;;;4.10;2.38;;;9.30;99.90;;;;;;4903791;29;20104;-79
2023/02/24 12:24:01;;;;;;;3.63;2.05;;;9.40;99.90;;;;;;4886940;29;20024;-80
2023/02/24 12:26:46;;;;;;;3.75;2.13;;;9.30;99.90;;;;;;4903720;29;20032;-80
2023/02/24 12:29:34;;;;;;;3.53;2.03;;;9.30;99.90;;;;;;4886646;29;20029;-79
2023/02/24 12:32:09;;;;;;;5.30;1.92;;;9.30;99.90;;;;;;4903718;29;20083;-79
2023/02/24 12:34:37;;;;;;;5.03;2.20;;;9.30;99.90;;;;;;4886684;29;20028;-79
2023/02/24 12:37:19;;;;;;;3.13;2.05;;;9.30;99.90;;;;;;4893092;29;20065;-79
2023/02/24 12:39:47;;;;;;;3.60;2.17;;;9.30;99.90;;;;;;4867986;29;20045;-79
2023/02/24 12:42:25;;;;;;;4.47;2.30;;;9.40;99.90;;;;;;4867967;29;20029;-79
2023/02/24 12:45:13;;;;;;;3.20;1.75;;;9.40;99.90;;;;;;4885411;29;20025;-79
2023/02/24 12:48:04;;;;;;;5.05;2.50;;;9.50;99.90;;;;;;4867996;29;20513;-79
2023/02/24 12:50:37;;;;;;;5.95;2.30;;;9.50;99.90;;;;;;4868108;29;20032;-80
2023/02/24 12:53:35;;;;;;;4.73;2.40;;;9.50;99.90;;;;;;4867946;29;20048;-79
2023/02/24 12:56:23;;;;;;;4.22;2.50;;;9.50;99.90;;;;;;4867079;29;20317;-79
2023/02/24 12:59:04;;;;;;;3.60;2.03;;;9.50;99.90;;;;;;4875607;29;20069;-79
2023/02/24 13:01:50;;;;;;;2.35;1.60;;;9.60;99.90;;;;;;4886028;29;20032;-79
2023/02/24 13:04:28;;;;;;;4.28;2.13;;;9.70;99.90;;;;;;4902921;29;20029;-79
2023/02/24 13:07:05;;;;;;;3.03;2.00;;;9.70;99.90;;;;;;4902133;29;20025;-79
2023/02/24 13:10:01;;;;;;;3.10;1.85;;;9.80;99.90;;;;;;4887118;29;20107;-79
2023/02/24 13:12:38;;;;;;;2.90;1.80;;;9.90;99.90;;;;;;4887006;29;20025;-79
2023/02/24 13:15:14;;;;;;;4.35;2.20;;;9.80;99.90;;;;;;4867243;29;20105;-79
2023/02/24 13:17:50;;;;;;;4.15;2.30;;;9.90;99.90;;;;;;4888041;29;20482;-79
2023/02/24 13:20:25;;;;;;;4.00;1.83;;;9.90;99.90;;;;;;4885868;29;20083;-80
2023/02/24 13:22:52;;;;;;;3.95;2.20;;;9.90;99.90;;;;;;4886063;29;20036;-80
2023/02/24 13:25:22;;;;;;;3.58;2.10;;;9.80;99.90;;;;;;4902422;29;20020;-79
2023/02/24 13:27:58;;;;;;;3.22;1.92;;;9.90;99.90;;;;;;4885905;29;20035;-79
2023/02/24 13:30:26;;;;;;;4.15;2.30;;;9.90;99.90;;;;;;4885238;29;20043;-79
2023/02/24 13:33:02;;;;;;;3.35;2.03;;;9.90;99.90;;;;;;4902324;29;20033;-79
2023/02/24 13:35:30;;;;;;;6.22;2.35;;;9.90;99.90;;;;;;4902186;29;20063;-79
2023/02/24 13:38:08;;;;;;;4.07;2.40;;;9.90;99.90;;;;;;4883046;29;20036;-79
2023/02/24 13:40:34;;;;;;;4.35;1.90;;;9.90;99.90;;;;;;4883824;29;20045;-79
2023/02/24 13:43:03;;;;;;;3.35;2.13;;;10.00;99.90;;;;;;4888177;29;20100;-80
2023/02/24 13:45:34;;;;;;;3.58;2.42;;;10.00;99.90;;;;;;4879067;29;20033;-79
2023/02/24 13:48:35;;;;;;;4.35;1.98;;;9.90;99.90;;;;;;4867072;29;20033;-79
2023/02/24 13:51:18;;;;;;;4.05;2.30;;;10.00;99.90;;;;;;4866760;29;20033;-79
2023/02/24 13:54:09;;;;;;;3.58;1.95;;;10.00;99.90;;;;;;4874670;29;20035;-79
2023/02/24 13:56:54;;;;;;;4.18;2.28;;;10.10;99.90;;;;;;4885094;29;20088;-79